Time;durP1;ratioP1;P1;durP2;ratioP2;P2;SDS_P1;SDS_P2;PMS_P1;PMS_P2;Temp;Humidity;BMP_temperature;BMP_pressure;BME280_temperature;BME280_humidity;BME280_pressure;Samples;Min_cycle;Max_cycle;Signal;HPM_P1;HPM_P2
2022/06/11 00:01:49;;;;;;;10.28;5.00;;;;;;;18.74;69.86;98798.17;1644116;85;21027;-79
2022/06/11 00:04:24;;;;;;;9.03;4.62;;;;;;;18.66;70.90;98803.05;1611754;87;21093;-79
2022/06/11 00:06:55;;;;;;;11.05;5.12;;;;;;;18.56;71.06;98799.31;1616529;87;21104;-78
2022/06/11 00:09:24;;;;;;;8.18;5.10;;;;;;;18.52;72.03;98789.91;1629486;86;21045;-79
2022/06/11 00:11:52;;;;;;;10.40;5.00;;;;;;;18.45;71.28;98794.25;1646342;85;21083;-78
2022/06/11 00:14:22;;;;;;;9.15;5.05;;;;;;;18.41;71.77;98803.27;1633281;86;21641;-79
2022/06/11 00:16:49;;;;;;;6.83;4.55;;;;;;;18.40;71.03;98804.68;1631346;86;21205;-78
2022/06/11 00:19:19;;;;;;;8.90;4.97;;;;;;;18.40;71.57;98801.60;1614547;88;20996;-78
2022/06/11 00:21:47;;;;;;;11.50;5.30;;;;;;;18.40;71.80;98802.92;1612249;88;21097;-78
2022/06/11 00:24:14;;;;;;;10.63;4.85;;;;;;;18.44;72.38;98808.81;1593752;88;20983;-79
2022/06/11 00:26:43;;;;;;;10.48;5.28;;;;;;;18.47;72.27;98802.89;1606828;88;21066;-78
2022/06/11 00:29:13;;;;;;;7.83;4.72;;;;;;;18.53;72.44;98804.78;1672700;85;21023;-78
2022/06/11 00:31:40;;;;;;;8.65;5.40;;;;;;;18.54;72.48;98799.39;1645145;86;21059;-81
2022/06/11 00:34:07;;;;;;;9.10;5.05;;;;;;;18.55;72.05;98800.27;1644586;87;21065;-78
2022/06/11 00:36:35;;;;;;;7.40;4.83;;;;;;;18.53;73.07;98798.20;1636387;86;21023;-78
2022/06/11 00:39:04;;;;;;;11.97;4.55;;;;;;;18.54;72.42;98788.03;1619437;87;21026;-79
2022/06/11 00:41:32;;;;;;;8.38;4.83;;;;;;;18.49;72.72;98790.48;1597894;88;21023;-78
2022/06/11 00:43:59;;;;;;;7.50;4.80;;;;;;;18.42;73.69;98793.14;1598320;86;21038;-78
2022/06/11 00:46:49;;;;;;;7.60;4.08;;;;;;;18.42;73.70;98782.61;1611361;87;21518;-79
2022/06/11 00:49:24;;;;;;;9.50;4.47;;;;;;;18.46;72.81;98792.00;1629760;86;21030;-78
2022/06/11 00:51:56;;;;;;;6.92;4.08;;;;;;;18.44;71.98;98795.66;1601321;88;21306;-81
2022/06/11 00:54:25;;;;;;;6.67;3.80;;;;;;;18.38;71.84;98790.33;1629400;87;21145;-78
2022/06/11 00:56:57;;;;;;;5.12;3.50;;;;;;;18.33;71.70;98795.49;1619363;86;21027;-82
2022/06/11 00:59:37;;;;;;;9.10;3.87;;;;;;;18.25;71.71;98793.33;1615532;87;21565;-81
2022/06/11 01:02:05;;;;;;;7.50;4.00;;;;;;;18.23;71.87;98798.67;1622385;86;21067;-78
2022/06/11 01:04:53;;;;;;;7.70;4.08;;;;;;;18.20;70.70;98805.43;1601609;88;21027;-78
2022/06/11 01:07:51;;;;;;;7.20;4.33;;;;;;;18.07;71.29;98807.97;1610298;87;21120;-77
2022/06/11 01:10:42;;;;;;;7.97;4.65;;;;;;;18.04;71.59;98805.98;1633272;86;21018;-78
2022/06/11 01:13:44;;;;;;;9.58;4.40;;;;;;;18.00;71.15;98805.80;1666692;85;21055;-81
2022/06/11 01:16:28;;;;;;;8.35;4.30;;;;;;;17.97;71.70;98802.89;1665009;85;21003;-79
2022/06/11 01:19:10;;;;;;;6.22;3.65;;;;;;;17.98;72.15;98805.88;1638984;86;21047;-79
2022/06/11 01:21:54;;;;;;;7.28;3.80;;;;;;;17.99;70.91;98803.64;1614353;87;21415;-78
2022/06/11 01:24:44;;;;;;;9.10;3.65;;;;;;;17.97;70.69;98803.38;1610763;88;22428;-78
2022/06/11 01:27:22;;;;;;;6.15;3.77;;;;;;;17.98;71.23;98804.57;1604611;87;21034;-79
2022/06/11 01:29:59;;;;;;;8.50;3.77;;;;;;;18.00;70.75;98810.58;1632013;86;21062;-78
2022/06/11 01:32:37;;;;;;;10.13;3.60;;;;;;;17.99;70.75;98808.91;1592586;88;21031;-79
2022/06/11 01:35:42;;;;;;;8.85;4.20;;;;;;;17.99;71.15;98817.27;1607739;88;21054;-79
2022/06/11 01:38:29;;;;;;;8.23;4.08;;;;;;;18.02;71.58;98811.34;1615485;87;21042;-79
2022/06/11 01:41:33;;;;;;;7.15;4.00;;;;;;;18.02;71.55;98823.17;1635068;86;21051;-79
2022/06/11 01:44:14;;;;;;;8.05;3.85;;;;;;;18.03;71.34;98820.09;1662081;85;20999;-78
2022/06/11 01:46:45;;;;;;;9.60;3.85;;;;;;;18.05;71.35;98820.37;1624285;86;21019;-78
2022/06/11 01:49:26;;;;;;;5.58;3.00;;;;;;;18.06;71.23;98822.08;1585230;88;21044;-78
2022/06/11 01:52:29;;;;;;;6.92;3.50;;;;;;;18.08;71.34;98827.22;1596823;88;21028;-79
2022/06/11 01:55:07;;;;;;;8.13;4.55;;;;;;;18.12;71.32;98827.41;1626099;88;21078;-79
2022/06/11 01:58:11;;;;;;;7.00;4.28;;;;;;;18.13;71.07;98830.91;1624321;88;21079;-78
2022/06/11 02:00:41;;;;;;;;;;;;;;;18.12;70.71;98827.41;1590628;88;21080;-78
2022/06/11 02:03:35;;;;;;;7.65;3.90;;;;;;;18.12;70.64;98830.52;1604449;87;20142;-79
2022/06/11 02:06:21;;;;;;;8.03;4.17;;;;;;;18.09;70.40;98838.98;1626726;86;21110;-79
2022/06/11 02:09:26;;;;;;;6.37;3.90;;;;;;;18.08;70.88;98836.43;1619558;88;21513;-80
2022/06/11 02:12:16;;;;;;;7.22;4.37;;;;;;;18.07;70.83;98836.91;1634141;86;21102;-77
2022/06/11 02:14:55;;;;;;;10.75;4.17;;;;;;;18.06;71.08;98830.41;1608936;87;21556;-78
2022/06/11 02:17:32;;;;;;;9.73;4.70;;;;;;;18.07;71.33;98836.91;1645801;85;21052;-79
2022/06/11 02:20:13;;;;;;;8.68;4.60;;;;;;;18.04;71.10;98835.77;1622410;86;21050;-82
2022/06/11 02:23:00;;;;;;;8.75;4.70;;;;;;;18.06;72.04;98847.06;1606981;88;21495;-78
2022/06/11 02:25:47;;;;;;;7.45;4.42;;;;;;;18.06;72.37;98836.99;1596869;88;21578;-78
2022/06/11 02:28:19;;;;;;;10.98;4.62;;;;;;;18.06;72.97;98837.86;1607781;88;21027;-79
2022/06/11 02:30:49;;;;;;;13.88;4.80;;;;;;;18.03;71.19;98841.14;1625065;88;21547;-79
2022/06/11 02:33:18;;;;;;;10.00;4.30;;;;;;;18.00;71.93;98838.20;1639142;87;21028;-78
2022/06/11 02:36:07;;;;;;;7.75;4.58;;;;;;;17.97;71.55;98831.83;1636366;86;21083;-79
2022/06/11 02:38:34;;;;;;;10.10;4.42;;;;;;;17.96;72.20;98835.37;1636665;86;21078;-80
2022/06/11 02:41:18;;;;;;;8.13;4.45;;;;;;;17.96;72.01;98842.42;1641206;86;21043;-79
2022/06/11 02:43:46;;;;;;;6.12;4.15;;;;;;;17.94;71.76;98849.56;1635915;87;21597;-80
2022/06/11 02:49:00;;;;;;;13.93;3.72;;;;;;;17.95;73.05;98851.27;1636499;87;21075;-82
2022/06/11 02:51:30;;;;;;;6.22;4.17;;;;;;;17.94;73.76;98858.29;1652593;86;21046;-82
2022/06/11 02:53:58;;;;;;;11.83;4.17;;;;;;;17.92;73.64;98858.85;1666531;86;21629;-79
2022/06/11 02:56:25;;;;;;;6.17;4.17;;;;;;;17.91;72.91;98858.49;1654686;86;21113;-80
2022/06/11 02:58:53;;;;;;;9.18;4.25;;;;;;;17.93;73.24;98863.19;1666620;86;21035;-80
2022/06/11 03:01:22;;;;;;;7.33;4.78;;;;;;;17.97;74.01;98860.75;1654470;86;21542;-79
2022/06/11 03:03:49;;;;;;;9.25;4.50;;;;;;;18.00;73.70;98871.55;1666578;86;21665;-80
2022/06/11 03:06:19;;;;;;;8.15;4.62;;;;;;;18.04;74.17;98869.95;1654572;87;21026;-80
2022/06/11 03:08:46;;;;;;;7.95;5.00;;;;;;;18.11;74.01;98869.62;1666687;86;21066;-79
2022/06/11 03:11:13;;;;;;;9.45;5.03;;;;;;;18.15;73.69;98868.50;1638451;87;21047;-80
2022/06/11 03:13:40;;;;;;;10.28;4.67;;;;;;;18.17;73.83;98867.94;1654546;87;21077;-81
2022/06/11 03:16:07;;;;;;;10.48;5.20;;;;;;;18.14;72.77;98879.95;1666321;85;21071;-80
2022/06/11 03:18:34;;;;;;;10.58;4.70;;;;;;;18.10;72.95;98874.01;1653383;86;21058;-80
2022/06/11 03:21:00;;;;;;;8.75;4.67;;;;;;;18.06;73.19;98872.06;1664171;86;21060;-80
2022/06/11 03:23:29;;;;;;;7.70;4.08;;;;;;;18.06;72.25;98877.77;1651959;86;21117;-80
2022/06/11 03:25:57;;;;;;;8.83;4.33;;;;;;;18.04;72.59;98883.11;1664183;86;21015;-80
2022/06/11 03:28:28;;;;;;;7.22;4.17;;;;;;;18.06;72.65;98881.27;1635859;87;21115;-79
2022/06/11 03:30:56;;;;;;;11.30;4.95;;;;;;;18.09;72.76;98878.91;1635920;87;21499;-79
2022/06/11 03:33:24;;;;;;;9.28;4.72;;;;;;;18.12;72.62;98884.45;1635869;87;21044;-80
2022/06/11 03:35:52;;;;;;;7.65;4.72;;;;;;;18.11;72.24;98885.41;1635813;87;21091;-80
2022/06/11 03:38:21;;;;;;;9.35;4.53;;;;;;;18.11;71.51;98882.77;1635735;87;21087;-81
2022/06/11 03:40:48;;;;;;;10.10;4.58;;;;;;;18.09;71.94;98879.75;1635715;88;21050;-80
2022/06/11 03:43:15;;;;;;;6.28;4.08;;;;;;;18.11;71.81;98877.52;1664660;86;21050;-80
2022/06/11 03:45:42;;;;;;;7.47;4.47;;;;;;;18.11;72.72;98874.88;1653072;86;21053;-80
2022/06/11 03:48:10;;;;;;;7.67;4.55;;;;;;;18.12;72.22;98880.50;1664731;86;21106;-80
2022/06/11 03:50:39;;;;;;;7.58;4.53;;;;;;;18.19;72.28;98880.53;1636330;87;21045;-80
2022/06/11 03:53:09;;;;;;;8.65;4.30;;;;;;;18.25;72.02;98872.27;1652344;87;21054;-79
2022/06/11 03:55:38;;;;;;;7.25;3.92;;;;;;;18.22;72.24;98878.56;1664211;86;21079;-80
2022/06/11 03:58:06;;;;;;;9.65;3.92;;;;;;;18.31;72.29;98875.84;1651997;86;21509;-80
2022/06/11 04:01:16;;;;;;;6.70;4.12;;;;;;;18.41;72.26;98883.55;1664131;85;21011;-81
2022/06/11 04:03:05;;;;;;;;;;;;;;;18.53;72.28;98882.44;1630645;87;21082;-80
2022/06/11 04:05:33;;;;;;;7.65;4.20;;;;;;;18.65;72.36;98879.88;1664073;86;20416;-80
2022/06/11 04:08:00;;;;;;;7.12;3.87;;;;;;;18.76;72.08;98879.23;1640447;86;21063;-80
2022/06/11 04:10:26;;;;;;;13.18;4.90;;;;;;;18.81;71.73;98878.49;1625320;88;21092;-79
2022/06/11 04:12:53;;;;;;;7.55;4.37;;;;;;;18.90;71.94;98882.36;1637249;87;21542;-80
2022/06/11 04:15:20;;;;;;;11.15;5.15;;;;;;;19.00;71.98;98882.15;1635716;88;21079;-80
2022/06/11 04:17:47;;;;;;;10.40;5.12;;;;;;;19.06;71.75;98884.39;1667689;85;21586;-79
2022/06/11 04:20:15;;;;;;;11.22;4.67;;;;;;;19.13;71.05;98883.52;1661467;85;21077;-80
2022/06/11 04:22:43;;;;;;;10.93;5.10;;;;;;;19.16;71.63;98883.34;1666697;85;20968;-80
2022/06/11 04:25:14;;;;;;;8.50;4.78;;;;;;;19.20;71.33;98881.33;1636863;86;21042;-79
2022/06/11 04:27:40;;;;;;;9.40;5.50;;;;;;;19.27;71.41;98882.16;1637061;86;21061;-79
2022/06/11 04:30:09;;;;;;;10.28;5.25;;;;;;;19.35;70.81;98886.11;1633292;86;21006;-80
2022/06/11 04:32:36;;;;;;;9.15;4.55;;;;;;;19.34;70.83;98888.35;1638985;86;21066;-80
2022/06/11 04:35:04;;;;;;;8.05;5.00;;;;;;;19.35;70.87;98891.38;1631949;86;21569;-79
2022/06/11 04:37:32;;;;;;;10.50;5.03;;;;;;;19.40;70.74;98893.26;1639428;86;21572;-79
2022/06/11 04:40:00;;;;;;;11.10;5.00;;;;;;;19.43;70.44;98894.36;1638183;87;20995;-80
2022/06/11 04:42:28;;;;;;;8.33;4.47;;;;;;;19.43;69.79;98886.45;1632568;86;21080;-80
2022/06/11 04:44:55;;;;;;;7.35;5.03;;;;;;;19.35;69.98;98890.89;1663551;85;21047;-78
2022/06/11 04:47:27;;;;;;;5.67;3.80;;;;;;;19.32;69.87;98886.28;1635029;86;21058;-78
2022/06/11 04:49:57;;;;;;;7.70;4.28;;;;;;;19.27;69.94;98887.43;1637163;86;21049;-77
2022/06/11 04:52:25;;;;;;;6.70;4.30;;;;;;;19.30;70.29;98883.77;1634655;86;21030;-80
2022/06/11 04:54:53;;;;;;;13.93;3.87;;;;;;;19.38;70.82;98890.71;1638781;87;21081;-80
2022/06/11 04:57:21;;;;;;;8.88;3.90;;;;;;;19.47;70.40;98890.09;1635632;86;21531;-79
2022/06/11 04:59:48;;;;;;;7.75;3.70;;;;;;;19.57;70.13;98892.98;1639351;86;21495;-80
2022/06/11 05:02:16;;;;;;;11.68;3.70;;;;;;;19.67;69.95;98895.38;1625698;86;21045;-80
2022/06/11 05:04:42;;;;;;;5.72;3.52;;;;;;;19.76;69.55;98891.83;1620721;86;22349;-77
2022/06/11 05:07:09;;;;;;;6.80;3.65;;;;;;;19.88;69.55;98896.28;1633451;86;21066;-78
2022/06/11 05:09:36;;;;;;;9.85;3.83;;;;;;;19.97;69.12;98898.29;1637027;86;21526;-78
2022/06/11 05:12:04;;;;;;;5.15;3.42;;;;;;;20.11;68.92;98896.52;1633285;86;21067;-78
2022/06/11 05:14:31;;;;;;;6.30;3.67;;;;;;;20.22;68.57;98903.25;1634988;86;21037;-79
2022/06/11 05:16:59;;;;;;;8.18;3.90;;;;;;;20.36;68.32;98902.31;1639052;87;21544;-79
2022/06/11 05:19:27;;;;;;;5.95;3.45;;;;;;;20.45;67.59;98894.61;1632580;86;21068;-79
2022/06/11 05:21:55;;;;;;;5.72;3.62;;;;;;;20.50;67.49;98904.00;1647003;85;21039;-78
2022/06/11 05:24:23;;;;;;;6.55;4.00;;;;;;;20.59;67.33;98896.78;1639183;87;21033;-78
2022/06/11 05:26:54;;;;;;;8.08;4.12;;;;;;;20.64;67.06;98901.27;1631820;85;21071;-78
2022/06/11 05:29:34;;;;;;;6.72;3.90;;;;;;;20.71;66.69;98904.33;1628962;86;21077;-78
2022/06/11 05:32:01;;;;;;;6.67;3.90;;;;;;;20.71;66.66;98902.55;1650642;86;21088;-78
2022/06/11 05:34:29;;;;;;;6.45;4.10;;;;;;;20.82;66.71;98913.19;1615520;87;21044;-79
2022/06/11 05:36:58;;;;;;;9.35;3.85;;;;;;;20.85;66.33;98909.51;1639635;86;21037;-78
2022/06/11 05:39:27;;;;;;;9.50;3.62;;;;;;;20.89;66.32;98908.79;1646033;85;21077;-78
2022/06/11 05:41:54;;;;;;;7.37;3.85;;;;;;;20.96;66.50;98910.06;1640170;86;21030;-78
2022/06/11 05:44:22;;;;;;;6.65;3.47;;;;;;;21.06;66.28;98912.41;1645474;85;21060;-78
2022/06/11 05:46:49;;;;;;;8.48;4.55;;;;;;;21.13;65.85;98911.48;1633680;86;21092;-79
2022/06/11 05:49:21;;;;;;;9.83;7.03;;;;;;;21.13;65.65;98912.80;1647494;85;21063;-78
2022/06/11 05:51:53;;;;;;;9.60;5.87;;;;;;;21.16;65.50;98906.83;1661585;85;21091;-78
2022/06/11 05:54:25;;;;;;;7.45;4.10;;;;;;;21.20;65.33;98910.94;1648097;85;21096;-78
2022/06/11 05:56:52;;;;;;;5.95;3.60;;;;;;;21.30;65.40;98914.25;1637100;86;21049;-78
2022/06/11 05:59:23;;;;;;;7.12;3.87;;;;;;;21.40;65.20;98916.59;1661541;85;21039;-78
2022/06/11 06:01:51;;;;;;;8.60;4.22;;;;;;;21.45;65.09;98919.30;1657438;85;21077;-79
2022/06/11 06:04:18;;;;;;;5.40;3.72;;;;;;;21.48;64.54;98919.55;1649662;85;21080;-78
2022/06/11 06:06:45;;;;;;;9.05;3.50;;;;;;;21.52;64.65;98919.69;1629069;86;21048;-77
2022/06/11 06:09:12;;;;;;;8.90;3.75;;;;;;;21.59;64.67;98920.95;1650654;85;21012;-78
2022/06/11 06:11:39;;;;;;;6.92;3.75;;;;;;;21.66;64.61;98922.65;1634091;86;21065;-78
2022/06/11 06:14:06;;;;;;;8.93;4.00;;;;;;;21.73;64.53;98920.41;1650584;85;21063;-78
2022/06/11 06:16:33;;;;;;;10.63;4.87;;;;;;;21.83;64.48;98926.71;1629860;86;21152;-78
2022/06/11 06:19:01;;;;;;;10.38;4.37;;;;;;;21.93;64.46;98926.87;1651146;85;21078;-79
2022/06/11 06:21:33;;;;;;;7.17;4.17;;;;;;;22.02;64.37;98926.16;1631577;86;21060;-78
2022/06/11 06:24:00;;;;;;;7.30;3.70;;;;;;;22.09;64.02;98913.33;1651152;85;21518;-79
2022/06/11 06:26:27;;;;;;;6.22;4.00;;;;;;;22.14;63.66;98917.78;1631335;86;21096;-78
2022/06/11 06:28:54;;;;;;;6.05;3.72;;;;;;;22.23;63.34;98910.47;1651176;85;21471;-78
2022/06/11 06:31:21;;;;;;;5.62;3.60;;;;;;;22.27;62.35;98907.98;1629187;86;21068;-78
2022/06/11 06:33:50;;;;;;;7.40;3.62;;;;;;;22.31;62.36;98904.14;1651184;85;21033;-79
2022/06/11 06:36:18;;;;;;;6.42;3.72;;;;;;;22.36;62.31;98901.99;1632416;86;21013;-78
2022/06/11 06:38:45;;;;;;;7.15;3.42;;;;;;;22.36;62.04;98911.72;1650243;85;21054;-78
2022/06/11 06:41:14;;;;;;;6.12;3.52;;;;;;;22.39;61.80;98909.69;1673059;84;21534;-78
2022/06/11 06:43:40;;;;;;;5.90;4.00;;;;;;;22.44;61.51;98907.54;1679104;84;20980;-79
2022/06/11 06:46:07;;;;;;;5.78;3.75;;;;;;;22.51;61.62;98905.73;1646612;85;21565;-78
2022/06/11 06:48:34;;;;;;;11.85;3.90;;;;;;;22.58;61.56;98902.50;1638108;86;21090;-78
2022/06/11 06:51:01;;;;;;;6.45;3.92;;;;;;;22.69;61.31;98908.27;1649357;85;21042;-78
2022/06/11 06:53:28;;;;;;;8.58;3.65;;;;;;;22.76;61.31;98904.19;1668452;84;21141;-79
2022/06/11 06:55:55;;;;;;;5.78;3.67;;;;;;;22.78;60.32;98905.37;1679356;84;21078;-78
2022/06/11 06:58:23;;;;;;;7.62;3.65;;;;;;;22.87;60.79;98903.82;1643789;85;20982;-78
2022/06/11 07:00:50;;;;;;;6.20;3.50;;;;;;;22.91;60.62;98907.91;1638077;86;21033;-78
2022/06/11 07:03:17;;;;;;;5.87;3.72;;;;;;;22.96;60.37;98909.23;1635861;87;21553;-77
2022/06/11 07:05:45;;;;;;;7.30;3.52;;;;;;;23.07;60.53;98907.08;1678606;84;21344;-78
2022/06/11 07:08:13;;;;;;;8.90;3.77;;;;;;;23.13;59.88;98909.73;1669496;84;21531;-78
2022/06/11 07:10:41;;;;;;;8.88;3.45;;;;;;;23.25;59.54;98906.09;1694987;84;21012;-78
2022/06/11 07:13:08;;;;;;;5.80;3.62;;;;;;;23.18;59.56;98915.03;1646501;85;21039;-77
2022/06/11 07:15:35;;;;;;;8.53;4.00;;;;;;;23.22;59.18;98915.14;1631804;86;21150;-79
2022/06/11 07:18:17;;;;;;;5.42;3.83;;;;;;;23.22;59.32;98917.80;1665026;85;21043;-80
2022/06/11 07:20:46;;;;;;;5.78;3.60;;;;;;;23.22;59.22;98915.14;1644951;85;21034;-79
2022/06/11 07:23:24;;;;;;;10.15;4.20;;;;;;;23.28;58.98;98915.59;1633517;86;21068;-79
2022/06/11 07:25:56;;;;;;;8.85;3.83;;;;;;;23.35;58.87;98920.28;1645381;85;21030;-79
2022/06/11 07:28:34;;;;;;;9.43;3.60;;;;;;;23.46;58.65;98922.09;1637337;86;21366;-79
2022/06/11 07:31:01;;;;;;;10.38;3.40;;;;;;;23.51;58.10;98930.50;1627881;86;21552;-79
2022/06/11 07:33:29;;;;;;;8.18;3.72;;;;;;;23.51;57.08;98930.50;1650171;85;21377;-80
2022/06/11 07:35:56;;;;;;;6.80;3.72;;;;;;;23.51;57.89;98928.34;1640214;86;21563;-78
2022/06/11 07:38:24;;;;;;;6.55;4.20;;;;;;;23.58;57.61;98933.52;1640285;86;21088;-79
2022/06/11 07:40:51;;;;;;;6.72;4.03;;;;;;;23.59;57.49;98937.84;1642811;85;21527;-79
2022/06/11 07:43:18;;;;;;;11.80;3.52;;;;;;;23.59;57.41;98936.02;1639909;86;21323;-78
2022/06/11 07:45:46;;;;;;;5.92;3.58;;;;;;;23.65;57.50;98937.83;1644148;87;21039;-79
2022/06/11 07:48:14;;;;;;;5.35;3.22;;;;;;;23.74;57.38;98933.10;1639063;86;21105;-79
2022/06/11 07:50:45;;;;;;;8.33;3.75;;;;;;;23.84;57.12;98937.20;1644866;85;21060;-80
2022/06/11 07:53:12;;;;;;;9.18;4.00;;;;;;;23.85;56.98;98935.73;1639244;86;21041;-78
2022/06/11 07:55:43;;;;;;;5.42;3.27;;;;;;;23.90;56.84;98928.73;1642049;85;21071;-79
2022/06/11 07:58:11;;;;;;;6.33;3.40;;;;;;;23.98;56.17;98939.06;1639333;86;20998;-78
2022/06/11 08:00:43;;;;;;;7.75;3.30;;;;;;;23.95;54.98;98941.95;1642685;85;21044;-79
2022/06/11 08:03:10;;;;;;;6.75;3.50;;;;;;;24.07;55.03;98943.23;1633509;86;21059;-79
2022/06/11 08:05:38;;;;;;;7.37;3.40;;;;;;;24.02;55.39;98940.48;1659435;85;22117;-80
2022/06/11 08:08:07;;;;;;;7.15;3.77;;;;;;;24.13;55.24;98934.30;1647612;85;21032;-79
2022/06/11 08:10:36;;;;;;;5.17;3.10;;;;;;;24.22;54.82;98943.30;1637319;86;21045;-80
2022/06/11 08:13:04;;;;;;;5.58;3.08;;;;;;;24.23;54.27;98939.65;1650591;85;21090;-80
2022/06/11 08:15:31;;;;;;;6.60;2.98;;;;;;;24.29;54.28;98932.98;1665209;85;21060;-79
2022/06/11 08:17:58;;;;;;;5.72;3.60;;;;;;;24.27;53.51;98937.58;1641954;86;21194;-79
2022/06/11 08:20:28;;;;;;;5.62;3.00;;;;;;;24.27;53.69;98933.59;1625260;87;21030;-79
2022/06/11 08:22:55;;;;;;;8.25;3.40;;;;;;;24.38;53.62;98930.89;1626063;86;20978;-78
2022/06/11 08:25:23;;;;;;;7.17;3.60;;;;;;;24.44;53.93;98935.67;1625113;87;21038;-80
2022/06/11 08:27:51;;;;;;;7.60;3.05;;;;;;;24.62;53.87;98929.30;1632548;86;21091;-79
2022/06/11 08:30:21;;;;;;;6.53;3.05;;;;;;;24.68;53.15;98935.91;1625021;87;21050;-79
2022/06/11 08:32:49;;;;;;;9.75;3.37;;;;;;;24.67;52.59;98935.08;1625039;86;21620;-80
2022/06/11 08:35:19;;;;;;;5.85;2.77;;;;;;;24.73;51.46;98928.36;1623979;87;21057;-79
2022/06/11 08:37:46;;;;;;;5.85;3.02;;;;;;;24.88;52.68;98932.86;1628008;86;22221;-78
2022/06/11 08:40:37;;;;;;;7.85;3.40;;;;;;;24.93;51.47;98933.28;1621340;87;21081;-79
2022/06/11 08:43:32;;;;;;;5.83;3.20;;;;;;;24.75;51.66;98937.05;1630066;86;21058;-79
2022/06/11 08:46:10;;;;;;;8.35;3.40;;;;;;;24.71;51.51;98939.16;1610023;87;21018;-78
2022/06/11 08:48:51;;;;;;;7.78;3.15;;;;;;;24.53;52.26;98936.27;1621690;86;21043;-79
2022/06/11 08:51:44;;;;;;;6.47;3.45;;;;;;;24.59;52.69;98934.87;1653030;85;21571;-79
2022/06/11 08:54:16;;;;;;;6.90;3.50;;;;;;;24.65;52.72;98933.04;1627891;86;21118;-79
2022/06/11 08:57:08;;;;;;;5.28;3.10;;;;;;;24.74;52.67;98924.25;1623841;87;21089;-79
2022/06/11 09:00:19;;;;;;;6.08;3.22;;;;;;;24.78;52.18;98919.02;1658898;85;21035;-79
2022/06/11 09:03:12;;;;;;;6.87;3.30;;;;;;;24.86;51.86;98919.69;1634356;86;21118;-79
2022/06/11 09:05:48;;;;;;;;;;;;;;;25.06;50.20;98919.27;1624777;87;21105;-78
2022/06/11 09:08:46;;;;;;;7.83;2.80;;;;;;;25.06;49.50;98921.09;1633108;86;20140;-79
2022/06/11 09:11:36;;;;;;;6.20;2.98;;;;;;;25.25;50.95;98924.31;1625780;86;21073;-79
2022/06/11 09:14:40;;;;;;;4.85;2.60;;;;;;;25.49;50.97;98914.16;1588277;87;21062;-79
2022/06/11 09:17:26;;;;;;;4.97;2.90;;;;;;;25.66;50.24;98913.95;1631858;86;21494;-79
2022/06/11 09:20:35;;;;;;;6.75;3.10;;;;;;;25.76;48.25;98917.45;1617616;87;21558;-80
2022/06/11 09:23:16;;;;;;;5.22;3.00;;;;;;;25.72;47.77;98918.72;1644718;85;21035;-79
2022/06/11 09:26:08;;;;;;;5.55;3.12;;;;;;;25.84;49.05;98907.94;1624902;88;21115;-79
2022/06/11 09:28:45;;;;;;;5.15;2.80;;;;;;;25.94;47.12;98908.80;1633476;86;21003;-79
2022/06/11 09:31:23;;;;;;;5.60;3.00;;;;;;;25.99;47.69;98904.74;1599088;88;21046;-78
2022/06/11 09:34:20;;;;;;;5.78;2.87;;;;;;;26.10;47.73;98913.09;1611688;87;21121;-80
2022/06/11 09:37:01;;;;;;;4.85;3.00;;;;;;;26.18;47.41;98899.03;1629813;86;21094;-79
2022/06/11 09:39:38;;;;;;;5.03;2.80;;;;;;;26.32;47.46;98901.73;1627804;87;21112;-78
2022/06/11 09:42:25;;;;;;;6.72;2.83;;;;;;;26.33;47.38;98896.77;1631912;86;21486;-79
2022/06/11 09:45:12;;;;;;;5.03;2.60;;;;;;;26.27;46.46;98912.84;1626956;87;21077;-79
2022/06/11 09:47:47;;;;;;;7.70;2.92;;;;;;;26.25;47.03;98904.15;1623634;86;21047;-79
2022/06/11 09:50:37;;;;;;;7.05;2.72;;;;;;;26.39;47.31;98899.69;1625903;87;21584;-79
2022/06/11 09:53:45;;;;;;;8.23;3.12;;;;;;;26.56;46.88;98894.59;1632160;86;21514;-79
2022/06/11 09:56:29;;;;;;;8.78;3.00;;;;;;;26.78;47.12;98898.78;1606059;87;21087;-80
2022/06/11 09:59:27;;;;;;;7.30;2.90;;;;;;;26.98;46.80;98890.19;1632488;86;21118;-79
2022/06/11 10:02:37;;;;;;;6.45;2.95;;;;;;;27.08;46.21;98882.97;1626940;86;21549;-79
2022/06/11 10:05:10;;;;;;;4.90;2.80;;;;;;;26.90;45.56;98886.92;1624360;86;20967;-80
2022/06/11 10:07:41;;;;;;;6.60;3.35;;;;;;;26.89;46.13;98887.06;1620770;87;21034;-80
2022/06/11 10:10:25;;;;;;;4.80;2.58;;;;;;;26.86;46.37;98883.34;1634470;86;21801;-79
2022/06/11 10:13:10;;;;;;;6.55;3.40;;;;;;;26.93;46.59;98881.27;1597635;88;21121;-78
2022/06/11 10:15:40;;;;;;;6.25;2.80;;;;;;;27.09;45.38;98881.97;1628040;86;21055;-78
2022/06/11 10:18:20;;;;;;;5.72;3.30;;;;;;;27.05;45.21;98877.92;1626558;87;21095;-79
2022/06/11 10:20:57;;;;;;;5.37;2.95;;;;;;;26.98;46.09;98868.84;1603650;86;21468;-78
2022/06/11 10:23:38;;;;;;;7.42;2.90;;;;;;;27.09;46.09;98869.95;1620061;87;21094;-79
2022/06/11 10:26:34;;;;;;;6.08;2.85;;;;;;;27.14;45.98;98865.53;1630955;86;21035;-79
2022/06/11 10:29:12;;;;;;;5.72;3.05;;;;;;;27.14;46.03;98862.86;1555651;91;21060;-79
2022/06/11 10:31:45;;;;;;;5.05;3.05;;;;;;;27.21;46.23;98857.75;1625040;86;21056;-78
2022/06/11 10:34:28;;;;;;;6.67;2.90;;;;;;;27.37;45.72;98860.61;1623240;86;21106;-79
2022/06/11 10:37:02;;;;;;;8.08;3.12;;;;;;;27.41;45.98;98856.64;1635168;84;21115;-79
2022/06/11 10:39:49;;;;;;;4.62;3.17;;;;;;;27.53;45.27;98855.42;1614956;87;21066;-79
2022/06/11 10:42:24;;;;;;;4.42;2.45;;;;;;;27.58;44.97;98859.82;1616606;86;21091;-78
2022/06/11 10:44:53;;;;;;;4.22;2.67;;;;;;;27.71;45.00;98855.41;1621952;87;21090;-78
2022/06/11 10:47:36;;;;;;;4.00;2.62;;;;;;;27.80;44.64;98851.00;1634482;86;21566;-78
2022/06/11 10:50:15;;;;;;;6.62;2.87;;;;;;;27.80;43.96;98848.83;1624906;87;21113;-78
2022/06/11 10:52:56;;;;;;;6.40;2.80;;;;;;;27.95;44.54;98848.16;1634663;86;21019;-78
2022/06/11 10:55:34;;;;;;;6.22;2.60;;;;;;;28.05;44.56;98846.69;1605132;87;21118;-79
2022/06/11 10:58:24;;;;;;;5.90;2.67;;;;;;;28.12;43.56;98841.58;1634615;86;21006;-79
2022/06/11 11:00:59;;;;;;;8.73;3.00;;;;;;;28.33;44.22;98831.83;1616996;87;21092;-78
2022/06/11 11:03:43;;;;;;;4.10;2.45;;;;;;;28.45;42.82;98840.42;1624801;86;21030;-78
2022/06/11 11:06:32;;;;;;;3.62;2.30;;;;;;;28.42;40.98;98841.59;1619756;87;21607;-79
2022/06/11 11:09:04;;;;;;;4.30;2.55;;;;;;;28.53;42.06;98847.17;1633354;86;21055;-79
2022/06/11 11:11:46;;;;;;;4.20;2.58;;;;;;;28.73;42.33;98843.28;1619735;87;21061;-79
2022/06/11 11:14:38;;;;;;;4.80;2.60;;;;;;;28.72;41.26;98847.45;1633816;86;21043;-78
2022/06/11 11:17:12;;;;;;;6.55;2.70;;;;;;;28.63;40.95;98847.92;1619670;87;21057;-78
2022/06/11 11:20:29;;;;;;;7.30;2.50;;;;;;;28.57;40.68;98845.89;1624130;87;21081;-79
2022/06/11 11:22:21;;;;;;;4.33;2.60;;;;;;;28.50;40.88;98848.34;1627465;86;21027;-79
2022/06/11 11:24:51;;;;;;;5.15;2.55;;;;;;;28.10;40.67;98855.59;1623610;87;21018;-79
2022/06/11 11:27:32;;;;;;;9.23;2.62;;;;;;;27.71;41.63;98859.92;1633721;86;21031;-79
2022/06/11 11:30:19;;;;;;;5.40;2.50;;;;;;;27.51;41.47;98861.91;1608273;88;21490;-79
2022/06/11 11:32:47;;;;;;;7.17;2.40;;;;;;;27.25;42.31;98855.98;1620355;87;21038;-79
2022/06/11 11:35:26;;;;;;;7.25;2.50;;;;;;;27.29;42.56;98860.53;1635824;86;20995;-78
2022/06/11 11:38:06;;;;;;;5.33;2.72;;;;;;;27.46;42.60;98859.72;1604675;88;21055;-78
2022/06/11 11:40:59;;;;;;;4.42;2.27;;;;;;;27.65;41.78;98859.20;1605104;87;21363;-79
2022/06/11 11:43:39;;;;;;;4.72;2.35;;;;;;;27.89;41.45;98855.42;1631185;86;21011;-79
2022/06/11 11:46:14;;;;;;;4.37;2.30;;;;;;;28.16;40.90;98841.61;1622749;87;21026;-79
2022/06/11 11:48:52;;;;;;;11.43;2.33;;;;;;;28.32;39.30;98843.54;1632355;86;21035;-79
2022/06/11 11:51:30;;;;;;;5.15;2.35;;;;;;;28.48;39.80;98844.13;1619792;87;21077;-79
2022/06/11 11:54:22;;;;;;;4.80;2.35;;;;;;;28.72;40.42;98832.73;1630621;86;21559;-79
2022/06/11 11:57:05;;;;;;;4.05;2.40;;;;;;;29.04;39.80;98835.18;1622283;87;21549;-79
2022/06/11 11:59:58;;;;;;;4.28;2.70;;;;;;;29.37;40.24;98832.59;1632552;88;20988;-79
2022/06/11 12:02:41;;;;;;;3.83;2.40;;;;;;;29.62;39.06;98834.28;1621832;87;21046;-79
2022/06/11 12:05:24;;;;;;;9.85;2.83;;;;;;;29.70;39.14;98834.28;1627324;86;21090;-78
2022/06/11 12:07:54;;;;;;;9.73;2.83;;;;;;;29.70;39.07;98840.98;1622727;87;21062;-79
2022/06/11 12:10:38;;;;;;;6.33;2.95;;;;;;;29.39;40.27;98840.81;1628395;86;21022;-78
2022/06/11 12:13:28;;;;;;;7.45;3.40;;;;;;;28.99;41.00;98837.50;1621727;87;21007;-79